SNOW

Not for real navigation. The accuracy of this data is not assured See disclaimer for more information



ICAO NAME COUNTRY WIND Kt GUST Kt VIS m TEMP/DEW C BARO METAR
KIDA IDAHO FALLS REGIONAL AIRPORT ID United States 7 0 400 -4/-6 29.80 KIDA 170902Z AUTO 30007KT 0.25SM R21/2000VP6000FT +SN FZFG BKN006 OVC013 M04/M06 A2980 RMK AO2 P0002
KSXT SEXTON SUMMIT OR United States 0 0 400 -3/-4 29.88 KSXT 170856Z AUTO 00000KT 0.25SM +SN FZFG VV003 M03/M04 A2988 RMK AO2 SLP149 P0003 60004 T10331044 5
KDBQ DUBUQUE REGIONAL AIRPORT IA United States 10 0 800 -6/-7 29.88 KDBQ 170913Z AUTO 08010KT 0.5SM R36/4000V4500FT SN FZFG VV008 M06/M07 A2988 RMK AO2 P0002 T10561072
KPDT PENDLETON MUNICIPAL AIRPORT OR United States 5 0 800 -1/-1 29.89 KPDT 170904Z AUTO 19005KT 0.5SM R25/1600V2600FT -SN FZFG VV006 M01/M01 A2989 RMK AO2 P0000 T10061011
KDVN DAVENPORT MUNICIPAL AIRPORT IA United States 12 0 800 -4/-6 29.90 KDVN 170903Z AUTO 08012KT 0.5SM SN FZFG VV007 M04/M06 A2990 RMK AO2 P0001 T10441061

Show more